FABL/BFN METAR and TAF weather

Enter ICAO airport designator
Station Type Date Time Source
FABL METAR 2018/01/22 11:00 UTC NOAA

FABL 221100Z 36012KT CAVOK 25/13 Q1017 NOSIG


Station Type Date Time Source
FABL Decoded METAR 2018/01/22 11:00 UTC NOAA

Bloemfontein, Bloemfontein Airport, South Africa (FABL) 29-06S 026-18E 1400M
Jan 22, 2018 - 06:00 AM EST / 2018.01.22 1100 UTC
Wind: from the N (360 degrees) at 14 MPH (12 KT):0
Visibility: greater than 7 mile(s):0
Temperature: 77 F (25 C)
Dew Point: 55 F (13 C)
Relative Humidity: 47%
Pressure (altimeter): 30.03 in. Hg (1017 hPa)
ob: FABL 221100Z 36012KT CAVOK 25/13 Q1017 NOSIG
cycle: 11

Station Type Date Time Source
FABL TAF 2018/01/22 12:18 UTC NOAA

TAF TAF FABL 221000Z 2212/2312 30015KT 9999 FEW045 BKN080 PROB40
TEMPO 2212/2216 27015KT 7000 SHRA SCT050TCU
TEMPO 2216/2224 23015KT 5000 TSRA SCT010 SCT050CB
BECMG 2222/2224 09010KT SCT015 PROB30
TEMPO 2302/2306 1500 BR BKN010
BECMG 2305/2307 34015KT SCT025
BECMG 2309/2311 SCT045 FEW050TCU TX30/2213Z TN16/2303Z


Example: see airport list